createdAt,value
2018-06-27T00:00:47.208Z,7.50
2018-06-27T00:05:49.391Z,6.80
2018-06-27T00:10:51.546Z,7.57
2018-06-27T00:15:53.719Z,6.33
2018-06-27T00:20:55.929Z,6.90
2018-06-27T00:25:58.107Z,6.60
2018-06-27T00:31:00.265Z,6.40
2018-06-27T00:36:02.476Z,7.13
2018-06-27T00:41:04.641Z,7.00
2018-06-27T00:46:06.801Z,7.50
2018-06-27T00:51:08.972Z,7.73
2018-06-27T00:56:11.119Z,8.37
2018-06-27T01:01:13.262Z,8.13
2018-06-27T01:06:15.585Z,7.23
2018-06-27T01:11:17.742Z,9.10
2018-06-27T01:16:19.899Z,9.37
2018-06-27T01:21:22.091Z,7.70
2018-06-27T01:26:24.405Z,8.43
2018-06-27T01:31:26.583Z,10.47
2018-06-27T01:36:28.723Z,9.20
2018-06-27T01:41:30.871Z,8.67
2018-06-27T01:46:33.756Z,9.50
2018-06-27T01:51:35.924Z,9.70
2018-06-27T01:56:38.057Z,10.57
2018-06-27T02:01:40.218Z,10.20
2018-06-27T02:06:42.343Z,11.03
2018-06-27T02:11:44.598Z,10.27
2018-06-27T02:16:46.961Z,9.53
2018-06-27T02:21:49.434Z,9.67
2018-06-27T02:26:51.555Z,10.60
2018-06-27T02:31:53.714Z,10.97
2018-06-27T02:36:55.852Z,8.97
2018-06-27T02:41:57.989Z,10.20
2018-06-27T02:47:00.221Z,10.30
2018-06-27T02:52:02.381Z,11.33
2018-06-27T02:57:04.836Z,10.07
2018-06-27T03:02:06.984Z,10.83
2018-06-27T03:07:09.116Z,9.77
2018-06-27T03:12:11.292Z,9.57
2018-06-27T03:17:13.427Z,10.93
2018-06-27T03:22:15.616Z,13.60
2018-06-27T03:27:17.863Z,10.30
2018-06-27T03:32:19.962Z,10.63
2018-06-27T03:37:22.101Z,11.80
2018-06-27T03:42:24.230Z,10.53
2018-06-27T03:47:26.367Z,11.30
2018-06-27T03:52:28.531Z,11.83
2018-06-27T03:57:30.644Z,11.13
2018-06-27T04:02:32.760Z,11.20
2018-06-27T04:07:34.937Z,10.20
2018-06-27T04:12:37.116Z,9.73
2018-06-27T04:17:39.247Z,11.80
2018-06-27T04:22:41.405Z,10.50
2018-06-27T04:27:43.523Z,11.70
2018-06-27T04:32:45.687Z,13.67
2018-06-27T04:37:47.839Z,12.40
2018-06-27T04:42:49.970Z,12.63
2018-06-27T04:47:52.099Z,12.40
2018-06-27T04:52:54.259Z,11.83
2018-06-27T04:57:56.407Z,11.53
2018-06-27T05:02:58.573Z,12.57
2018-06-27T05:08:00.756Z,11.70
2018-06-27T05:13:02.919Z,11.43
2018-06-27T05:18:05.095Z,12.00
2018-06-27T05:23:07.259Z,9.67
2018-06-27T05:28:10.023Z,9.10
2018-06-27T05:33:12.148Z,11.10
2018-06-27T05:38:14.294Z,9.60
2018-06-27T05:43:16.442Z,9.57
2018-06-27T05:48:18.562Z,9.60
2018-06-27T05:53:20.702Z,9.33
2018-06-27T05:58:22.934Z,8.53
2018-06-27T06:03:24.989Z,7.40
2018-06-27T06:08:27.101Z,8.00
2018-06-27T06:13:29.215Z,7.10
2018-06-27T06:18:31.338Z,6.57
2018-06-27T06:23:33.489Z,6.07
2018-06-27T06:28:35.791Z,6.70
2018-06-27T06:33:37.915Z,6.40
2018-06-27T06:38:40.044Z,7.47
2018-06-27T06:43:42.162Z,7.70
2018-06-27T06:48:44.314Z,6.77
2018-06-27T06:53:46.463Z,8.00
2018-06-27T06:58:48.646Z,7.83
2018-06-27T07:03:50.780Z,6.97
2018-06-27T07:08:52.919Z,5.80
2018-06-27T07:13:55.143Z,6.70
2018-06-27T07:18:57.280Z,8.00
2018-06-27T07:23:59.475Z,6.77
2018-06-27T07:29:01.671Z,6.20
2018-06-27T07:34:03.865Z,6.83
2018-06-27T07:39:07.496Z,6.37
2018-06-27T07:44:09.644Z,5.67
2018-06-27T07:49:11.787Z,7.03
2018-06-27T07:54:13.933Z,6.73
2018-06-27T07:59:16.092Z,6.70
2018-06-27T08:04:18.218Z,6.07
2018-06-27T08:09:20.356Z,6.53
2018-06-27T08:14:22.495Z,6.67
2018-06-27T08:19:24.647Z,6.03
2018-06-27T08:24:26.799Z,6.17
2018-06-27T08:29:28.959Z,6.17
2018-06-27T08:34:31.108Z,6.70
2018-06-27T08:39:33.258Z,6.97
2018-06-27T08:44:35.425Z,5.93
2018-06-27T08:49:37.578Z,6.20
2018-06-27T08:54:46.420Z,4.80
2018-06-27T08:59:48.812Z,6.90
2018-06-27T09:04:50.980Z,5.07
2018-06-27T09:09:53.108Z,5.10
2018-06-27T09:14:55.316Z,6.67
2018-06-27T09:19:57.512Z,4.87
2018-06-27T09:24:59.718Z,5.67
2018-06-27T09:30:01.909Z,5.70
2018-06-27T09:35:04.293Z,4.70
2018-06-27T09:40:06.444Z,4.03
2018-06-27T09:45:08.650Z,3.23
2018-06-27T09:50:10.825Z,3.47
2018-06-27T09:55:13.286Z,3.33
2018-06-27T10:00:21.203Z,3.50
2018-06-27T10:05:23.355Z,3.20
2018-06-27T10:10:25.536Z,2.23
2018-06-27T10:15:27.689Z,2.67
2018-06-27T10:20:29.818Z,2.87
2018-06-27T10:25:32.027Z,3.20
2018-06-27T10:30:34.187Z,2.93
2018-06-27T10:35:36.383Z,3.90
2018-06-27T10:40:38.562Z,3.50
2018-06-27T10:45:40.727Z,3.70
2018-06-27T10:50:42.882Z,3.30
2018-06-27T10:55:45.061Z,3.50
2018-06-27T11:00:47.235Z,3.10
2018-06-27T11:05:49.570Z,3.53
2018-06-27T11:10:51.716Z,2.70
2018-06-27T11:15:53.900Z,2.00
2018-06-27T11:20:56.076Z,1.70
2018-06-27T11:25:58.286Z,1.77
2018-06-27T11:31:00.452Z,1.70
2018-06-27T11:36:02.629Z,1.60
2018-06-27T11:41:04.882Z,0.90
2018-06-27T11:46:07.015Z,1.50
2018-06-27T11:51:09.179Z,0.90
2018-06-27T11:56:11.354Z,0.80
2018-06-27T12:01:13.512Z,1.00
2018-06-27T12:06:15.662Z,1.00
2018-06-27T12:11:18.117Z,1.23
2018-06-27T12:16:20.599Z,1.20
2018-06-27T12:21:22.772Z,1.33
2018-06-27T12:26:25.185Z,1.00
2018-06-27T12:31:27.385Z,1.03
2018-06-27T12:36:29.596Z,1.00
2018-06-27T12:41:31.771Z,0.90
2018-06-27T12:46:33.944Z,0.80
2018-06-27T12:51:36.137Z,1.13
2018-06-27T12:56:38.383Z,0.77
2018-06-27T13:01:40.643Z,1.13
2018-06-27T13:06:42.836Z,1.20
2018-06-27T13:11:45.013Z,0.97
2018-06-27T13:16:47.201Z,1.23
2018-06-27T13:21:49.357Z,0.97
2018-06-27T13:26:51.598Z,0.73
2018-06-27T13:31:53.796Z,0.77
2018-06-27T13:36:55.955Z,0.70
2018-06-27T13:41:58.280Z,1.10
2018-06-27T13:47:00.447Z,1.00
2018-06-27T13:52:02.616Z,1.30
2018-06-27T13:57:04.852Z,1.67
2018-06-27T14:02:07.049Z,2.20
2018-06-27T14:07:09.262Z,2.60
2018-06-27T14:12:11.432Z,3.10
2018-06-27T14:17:13.645Z,2.67
2018-06-27T14:22:15.827Z,3.17
2018-06-27T14:27:18.025Z,3.57
2018-06-27T14:32:20.227Z,5.10
2018-06-27T14:37:22.456Z,3.90
2018-06-27T14:42:24.620Z,4.13
2018-06-27T14:47:40.926Z,4.53
2018-06-27T14:52:43.100Z,3.30
2018-06-27T14:57:45.290Z,3.37
2018-06-27T15:02:47.509Z,3.80
2018-06-27T15:07:49.775Z,3.70
2018-06-27T15:12:51.969Z,2.80
2018-06-27T15:17:54.193Z,3.10
2018-06-27T15:22:56.421Z,2.10
2018-06-27T15:27:58.675Z,1.70
2018-06-27T15:33:00.845Z,1.70
2018-06-27T15:38:03.049Z,1.70
2018-06-27T15:43:05.275Z,1.73
2018-06-27T15:48:07.467Z,1.13
2018-06-27T15:53:09.627Z,1.30
2018-06-27T15:58:11.820Z,1.30
2018-06-27T16:03:14.022Z,1.10
2018-06-27T16:08:16.230Z,1.57
2018-06-27T16:13:18.448Z,1.70
2018-06-27T16:18:20.695Z,1.20
2018-06-27T16:23:22.895Z,1.37
2018-06-27T16:28:25.099Z,1.27
2018-06-27T16:33:27.443Z,1.13
2018-06-27T16:38:29.654Z,1.30
2018-06-27T16:43:32.058Z,1.23
2018-06-27T16:48:34.074Z,1.33
2018-06-27T16:53:36.318Z,1.00
2018-06-27T16:58:38.518Z,1.20
2018-06-27T17:03:40.694Z,1.20
2018-06-27T17:08:42.913Z,1.17
2018-06-27T17:13:45.161Z,1.03
2018-06-27T17:18:47.378Z,1.30
2018-06-27T17:23:49.628Z,0.77
2018-06-27T17:28:51.911Z,1.10
2018-06-27T17:33:54.705Z,1.27
2018-06-27T17:38:56.896Z,1.10
2018-06-27T17:43:59.108Z,1.00
2018-06-27T17:49:01.364Z,1.10
2018-06-27T17:54:04.608Z,1.00
2018-06-27T17:59:06.907Z,1.20
2018-06-27T18:04:09.134Z,1.07
2018-06-27T18:09:11.327Z,1.10
2018-06-27T18:14:13.574Z,1.10
2018-06-27T18:19:15.778Z,1.23
2018-06-27T18:24:18.140Z,1.20
2018-06-27T18:29:20.409Z,1.20
2018-06-27T18:34:22.675Z,1.30
2018-06-27T18:39:25.021Z,1.30
2018-06-27T18:44:27.216Z,1.27
2018-06-27T18:49:29.489Z,1.20
2018-06-27T18:54:31.701Z,1.10
2018-06-27T18:59:33.924Z,1.40
2018-06-27T19:04:36.162Z,1.77
2018-06-27T19:09:38.375Z,1.10
2018-06-27T19:14:40.559Z,1.60
2018-06-27T19:19:42.804Z,1.30
2018-06-27T19:24:44.983Z,1.20
2018-06-27T19:29:47.208Z,1.33
2018-06-27T19:34:49.448Z,0.97
2018-06-27T19:39:51.649Z,1.40
2018-06-27T19:44:53.905Z,1.60
2018-06-27T19:49:56.157Z,1.50
2018-06-27T19:54:58.335Z,0.93
2018-06-27T20:00:00.519Z,1.23
2018-06-27T20:05:02.781Z,1.10
2018-06-27T20:10:05.184Z,1.50
2018-06-27T20:15:07.392Z,1.23
2018-06-27T20:20:09.979Z,1.50
2018-06-27T20:25:12.238Z,1.30
2018-06-27T20:30:14.503Z,1.70
2018-06-27T20:35:16.709Z,1.50
2018-06-27T20:40:18.975Z,1.37
2018-06-27T20:45:21.192Z,1.10
2018-06-27T20:50:23.420Z,1.10
2018-06-27T20:55:25.675Z,1.73
2018-06-27T21:00:28.051Z,1.70
2018-06-27T21:05:30.210Z,1.40
2018-06-27T21:10:32.393Z,1.77
2018-06-27T21:15:34.611Z,1.47
2018-06-27T21:20:36.825Z,1.20
2018-06-27T21:25:39.032Z,2.30
2018-06-27T21:30:41.233Z,1.37
2018-06-27T21:35:43.442Z,1.90
2018-06-27T21:40:45.606Z,2.33
2018-06-27T21:45:47.808Z,1.60
2018-06-27T21:50:49.988Z,1.87
2018-06-27T21:55:52.201Z,1.40
2018-06-27T22:00:54.393Z,1.93
2018-06-27T22:05:56.502Z,1.80
2018-06-27T22:10:58.728Z,1.53
2018-06-27T22:16:00.915Z,1.53
2018-06-27T22:21:03.101Z,1.50
2018-06-27T22:26:05.312Z,1.90
2018-06-27T22:31:07.974Z,1.80
2018-06-27T22:36:10.131Z,1.60
2018-06-27T22:41:12.294Z,1.63
2018-06-27T22:46:14.424Z,2.20
2018-06-27T22:51:16.584Z,2.20
2018-06-27T22:56:18.719Z,2.17
2018-06-27T23:01:20.839Z,2.13
2018-06-27T23:06:22.970Z,2.23
2018-06-27T23:11:25.138Z,2.20
2018-06-27T23:16:27.295Z,2.40
2018-06-27T23:21:29.434Z,2.10
2018-06-27T23:26:31.630Z,2.50
2018-06-27T23:31:33.791Z,2.17
2018-06-27T23:36:35.934Z,1.60
2018-06-27T23:41:38.096Z,1.87
2018-06-27T23:46:40.228Z,2.50
2018-06-27T23:51:42.350Z,1.93
2018-06-27T23:56:44.494Z,1.50
